Time;durP1;ratioP1;P1;durP2;ratioP2;P2;SDS_P1;SDS_P2;PMS_P1;PMS_P2;Temp;Humidity;BMP_temperature;BMP_pressure;BME280_temperature;BME280_humidity;BME280_pressure;Samples;Min_cycle;Max_cycle;Signal;HPM_P1;HPM_P2
2022/02/11 00:00:53;;;;;;;28.23;15.78;;;;;;;6.54;69.17;96724.41;1692012;84;21023;-84
2022/02/11 00:08:20;;;;;;;18.35;14.00;;;;;;;6.46;69.53;96720.92;1675563;84;21017;-83
2022/02/11 00:10:45;;;;;;;21.60;13.78;;;;;;;6.46;69.62;96717.86;1673492;83;20980;-83
2022/02/11 00:13:11;;;;;;;29.63;17.15;;;;;;;6.46;69.56;96717.86;1677568;84;21107;-83
2022/02/11 00:15:41;;;;;;;18.98;13.88;;;;;;;6.50;69.58;96715.31;1686353;83;21425;-82
2022/02/11 00:18:05;;;;;;;16.73;11.80;;;;;;;6.49;69.61;96713.69;1676130;83;21001;-83
2022/02/11 00:20:31;;;;;;;16.35;11.15;;;;;;;6.49;69.72;96718.85;1628264;86;21415;-83
2022/02/11 00:22:57;;;;;;;17.57;11.48;;;;;;;6.46;69.79;96716.57;1612478;86;20984;-83
2022/02/11 00:25:23;;;;;;;18.52;13.05;;;;;;;6.43;69.92;96714.77;1685823;83;21031;-83
2022/02/11 00:35:49;;;;;;;22.50;12.98;;;;;;;6.34;70.29;96719.03;1692019;83;21421;-83
2022/02/11 00:38:17;;;;;;;21.15;12.10;;;;;;;6.37;70.24;96726.50;1689194;83;21056;-83
2022/02/11 01:02:28;;;;;;;31.42;17.42;;;;;;;6.31;70.67;96732.23;1686446;83;21480;-83
2022/02/11 01:04:49;;;;;;;18.50;13.40;;;;;;;6.28;70.72;96728.66;1692293;83;21059;-83
2022/02/11 01:07:15;;;;;;;26.33;16.00;;;;;;;6.28;70.72;96731.24;1691592;83;21478;-82
2022/02/11 01:09:42;;;;;;;23.02;14.18;;;;;;;6.31;70.76;96728.36;1686696;83;20982;-82
2022/02/11 01:12:09;;;;;;;20.55;13.78;;;;;;;6.37;70.80;96717.47;1668054;83;21020;-83
2022/02/11 01:14:41;;;;;;;23.50;13.88;;;;;;;6.40;70.76;96722.34;1688619;83;21070;-83
2022/02/11 01:22:35;;;;;;;31.95;17.30;;;;;;;6.39;70.79;96727.64;1691401;82;21047;-82
2022/02/11 01:27:50;;;;;;;22.13;12.53;;;;;;;6.33;70.84;96722.58;1685961;83;21051;-83
2022/02/11 02:03:32;;;;;;;50.98;23.05;;;;;;;6.10;71.77;96692.53;1697353;83;21019;-83
2022/02/11 02:05:59;;;;;;;28.83;15.63;;;;;;;6.09;71.80;96695.25;1694594;82;21003;-82
2022/02/11 02:21:44;;;;;;;21.15;13.78;;;;;;;6.17;72.06;96669.04;1687686;83;20968;-83
2022/02/11 02:30:10;;;;;;;23.73;13.93;;;;;;;6.09;72.05;96665.11;1684102;84;21355;-83
2022/02/11 02:58:23;;;;;;;29.52;17.25;;;;;;;6.11;72.23;96652.87;1683702;83;21476;-83
2022/02/11 03:52:31;;;;;;;15.15;9.80;;;;;;;5.84;74.13;96652.40;1688649;83;21098;-82
2022/02/11 04:22:06;;;;;;;40.48;20.80;;;;;;;5.73;74.29;96656.49;1686820;83;21009;-83
2022/02/11 04:28:04;;;;;;;25.68;12.85;;;;;;;5.68;74.38;96648.36;1688194;83;21049;-84
2022/02/11 04:56:42;;;;;;;57.25;26.15;;;;;;;5.51;75.12;96634.95;1687973;83;20981;-82
2022/02/11 05:01:50;;;;;;;10.43;7.33;;;;;;;5.49;74.86;96630.42;1675169;83;21026;-82
2022/02/11 05:04:17;;;;;;;10.78;7.35;;;;;;;5.52;75.27;96636.09;1693878;83;21050;-82
2022/02/11 05:06:42;;;;;;;9.33;7.00;;;;;;;5.53;75.29;96627.44;1688639;83;20973;-83
2022/02/11 05:09:08;;;;;;;87.05;37.05;;;;;;;5.55;75.23;96621.66;1691490;83;21114;-82
2022/02/11 05:11:34;;;;;;;12.13;7.87;;;;;;;5.53;74.77;96626.16;1659547;83;21054;-82
2022/02/11 05:14:00;;;;;;;10.53;7.55;;;;;;;5.54;75.10;96624.38;1684633;83;21415;-83
2022/02/11 05:16:26;;;;;;;11.10;7.37;;;;;;;5.51;75.04;96619.49;1686649;83;20928;-82
2022/02/11 05:18:51;;;;;;;9.10;7.37;;;;;;;5.47;75.20;96624.13;1698798;83;21067;-82
2022/02/11 05:21:17;;;;;;;27.15;13.28;;;;;;;5.41;75.25;96617.80;1694003;81;21056;-83
2022/02/11 05:23:43;;;;;;;11.68;8.15;;;;;;;5.40;75.15;96621.33;1687915;83;20979;-82
2022/02/11 05:26:08;;;;;;;15.18;8.25;;;;;;;5.40;75.28;96617.47;1692944;83;21271;-82
2022/02/11 05:28:35;;;;;;;9.53;7.22;;;;;;;5.43;75.12;96613.78;1679309;83;21159;-82
2022/02/11 05:31:00;;;;;;;10.28;6.70;;;;;;;5.46;75.25;96619.13;1675637;83;21431;-82
2022/02/11 05:33:29;;;;;;;9.83;6.58;;;;;;;5.48;75.50;96614.16;1675515;83;21045;-83
2022/02/11 05:35:54;;;;;;;27.45;14.38;;;;;;;5.49;75.57;96611.91;1668327;84;21454;-83
2022/02/11 05:38:20;;;;;;;10.35;6.58;;;;;;;5.47;75.47;96606.56;1681564;83;21049;-83
2022/02/11 05:40:46;;;;;;;9.05;6.33;;;;;;;5.45;75.54;96602.85;1677237;83;21056;-82
2022/02/11 05:43:12;;;;;;;9.00;6.42;;;;;;;5.42;75.45;96604.44;1675244;84;21084;-82
2022/02/11 05:45:38;;;;;;;14.90;9.00;;;;;;;5.39;75.40;96599.57;1675800;84;21032;-82
2022/02/11 05:48:05;;;;;;;10.75;7.55;;;;;;;5.37;75.40;96603.58;1682144;84;21056;-82
2022/02/11 05:50:31;;;;;;;8.33;5.83;;;;;;;5.37;75.47;96597.62;1675600;84;21040;-83
2022/02/11 05:52:57;;;;;;;7.42;6.08;;;;;;;5.38;75.67;96597.95;1671981;84;20969;-82
2022/02/11 05:55:23;;;;;;;10.05;6.53;;;;;;;5.37;75.70;96591.98;1675441;83;21087;-83
2022/02/11 05:57:49;;;;;;;8.15;5.40;;;;;;;5.35;75.57;96594.34;1669031;83;21051;-83
2022/02/11 06:00:15;;;;;;;8.45;6.20;;;;;;;5.31;75.60;96591.73;1676549;83;21063;-83
2022/02/11 06:02:41;;;;;;;8.28;6.45;;;;;;;5.27;75.44;96591.70;1682141;83;21036;-82
2022/02/11 06:05:07;;;;;;;6.60;5.72;;;;;;;5.22;75.70;96594.71;1671483;83;21458;-83
2022/02/11 06:07:33;;;;;;;8.55;6.22;;;;;;;5.22;75.64;96593.42;1676855;84;22170;-82
2022/02/11 06:09:59;;;;;;;9.95;7.40;;;;;;;5.20;75.26;96595.30;1674007;84;20975;-82
2022/02/11 06:12:26;;;;;;;10.18;5.85;;;;;;;5.22;75.30;96590.84;1687009;84;20965;-82
2022/02/11 06:14:53;;;;;;;9.03;6.25;;;;;;;5.25;75.63;96593.13;1671603;84;21482;-83
2022/02/11 06:17:20;;;;;;;9.53;6.80;;;;;;;5.24;75.12;96599.23;1679196;84;21011;-82
2022/02/11 06:19:50;;;;;;;8.68;6.60;;;;;;;5.24;75.51;96599.23;1672021;83;20964;-83
2022/02/11 06:22:17;;;;;;;7.83;6.20;;;;;;;5.24;75.44;96599.23;1674250;83;21043;-82
2022/02/11 06:24:43;;;;;;;21.57;12.33;;;;;;;5.21;75.32;96595.66;1672988;84;21471;-83
2022/02/11 06:27:09;;;;;;;9.20;6.33;;;;;;;5.21;74.98;96605.16;1669213;84;21124;-82
2022/02/11 06:29:37;;;;;;;11.63;7.67;;;;;;;5.23;75.34;96602.77;1689228;83;21565;-82
2022/02/11 06:32:04;;;;;;;10.75;6.72;;;;;;;5.26;75.39;96602.48;1687436;83;21296;-82
2022/02/11 06:34:31;;;;;;;9.43;6.97;;;;;;;5.28;75.13;96602.33;1686918;83;21443;-82
2022/02/11 06:36:57;;;;;;;11.25;6.22;;;;;;;5.25;75.19;96596.19;1687442;83;21017;-82
2022/02/11 06:39:24;;;;;;;9.83;6.60;;;;;;;5.23;75.24;96593.75;1687996;83;20982;-82
2022/02/11 06:41:53;;;;;;;9.55;6.45;;;;;;;5.23;75.40;96594.23;1697536;82;21544;-82
2022/02/11 06:44:18;;;;;;;8.38;6.45;;;;;;;5.21;75.43;96594.37;1686595;83;20960;-82
2022/02/11 06:46:44;;;;;;;9.88;6.65;;;;;;;5.21;75.26;96590.99;1686841;83;21054;-83
2022/02/11 06:49:10;;;;;;;9.63;6.72;;;;;;;5.20;75.43;96597.07;1687276;83;21052;-83
2022/02/11 06:51:35;;;;;;;8.45;6.33;;;;;;;5.19;75.38;96598.84;1674043;83;21044;-82
2022/02/11 06:54:01;;;;;;;23.22;10.08;;;;;;;5.21;75.39;96602.11;1699018;83;21023;-82
2022/02/11 06:56:27;;;;;;;24.55;9.15;;;;;;;5.24;74.73;96611.31;1674782;83;20940;-82
2022/02/11 06:58:55;;;;;;;9.43;6.62;;;;;;;5.27;74.77;96607.16;1693300;83;21413;-83
2022/02/11 07:01:22;;;;;;;10.60;7.17;;;;;;;5.27;74.81;96605.39;1684016;83;21095;-82
2022/02/11 07:03:48;;;;;;;10.82;6.95;;;;;;;5.29;74.50;96603.95;1686873;83;21071;-83
2022/02/11 07:06:13;;;;;;;8.10;5.75;;;;;;;5.31;74.88;96600.27;1683768;83;21063;-82
2022/02/11 07:08:39;;;;;;;8.45;6.53;;;;;;;5.32;74.86;96605.76;1677519;83;21427;-83
2022/02/11 07:11:05;;;;;;;11.57;7.20;;;;;;;5.33;74.70;96600.94;1692221;83;21023;-82
2022/02/11 07:13:30;;;;;;;51.15;20.10;;;;;;;5.36;74.89;96607.09;1689276;83;21086;-82
2022/02/11 07:15:57;;;;;;;13.50;9.23;;;;;;;5.38;74.37;96600.53;1684580;83;21004;-82
2022/02/11 07:18:22;;;;;;;40.78;18.73;;;;;;;5.43;74.36;96600.90;1693785;83;20961;-83
2022/02/11 07:20:49;;;;;;;29.30;15.13;;;;;;;5.45;74.08;96588.67;1688138;83;21277;-82
2022/02/11 07:23:16;;;;;;;18.12;9.08;;;;;;;5.50;73.76;96590.81;1633541;85;21080;-83
2022/02/11 07:25:42;;;;;;;37.08;17.20;;;;;;;5.54;73.94;96593.45;1657692;85;21368;-82
2022/02/11 07:28:08;;;;;;;33.05;17.48;;;;;;;5.54;73.75;96596.03;1643866;85;21084;-82
2022/02/11 07:30:34;;;;;;;15.38;10.45;;;;;;;5.55;73.57;96595.88;1640365;85;21044;-82
2022/02/11 07:33:00;;;;;;;73.52;27.80;;;;;;;5.58;73.53;96588.34;1644328;85;20980;-82
2022/02/11 07:35:27;;;;;;;48.15;22.17;;;;;;;5.62;73.51;96584.50;1641247;85;21399;-82
2022/02/11 07:37:52;;;;;;;18.32;11.78;;;;;;;5.68;73.42;96580.84;1645202;85;21127;-82
2022/02/11 07:40:19;;;;;;;18.52;12.00;;;;;;;5.74;73.45;96579.47;1641256;85;21491;-82
2022/02/11 07:42:46;;;;;;;39.33;16.95;;;;;;;5.77;73.27;96573.21;1648184;85;21006;-82
2022/02/11 07:45:13;;;;;;;22.15;11.53;;;;;;;5.81;73.29;96574.53;1643014;85;21044;-82
2022/02/11 07:47:39;;;;;;;23.70;12.00;;;;;;;5.84;73.01;96585.83;1651915;85;21317;-82
2022/02/11 07:50:06;;;;;;;36.93;18.17;;;;;;;5.85;72.97;96582.30;1644006;85;21355;-82
2022/02/11 07:52:32;;;;;;;31.95;20.95;;;;;;;5.86;72.98;96589.10;1639138;85;21460;-82
2022/02/11 07:54:58;;;;;;;27.55;17.95;;;;;;;5.91;72.77;96586.91;1654548;85;20977;-82
2022/02/11 07:57:24;;;;;;;60.83;29.50;;;;;;;5.95;72.64;96577.91;1641494;85;20978;-82
2022/02/11 07:59:50;;;;;;;30.55;14.68;;;;;;;5.98;72.38;96577.13;1680260;83;21014;-82
2022/02/11 08:02:16;;;;;;;50.83;26.35;;;;;;;6.02;72.30;96577.67;1676253;83;21064;-82
2022/02/11 08:04:41;;;;;;;22.42;12.80;;;;;;;6.06;72.04;96575.12;1681454;83;21028;-82
2022/02/11 08:07:07;;;;;;;34.95;19.55;;;;;;;6.06;71.92;96559.64;1687647;83;21436;-82
2022/02/11 08:09:33;;;;;;;39.25;18.95;;;;;;;6.08;71.93;96557.72;1689750;83;20939;-82
2022/02/11 08:11:59;;;;;;;57.53;23.95;;;;;;;6.09;71.50;96563.20;1680158;83;21095;-82
2022/02/11 08:14:25;;;;;;;24.35;12.53;;;;;;;6.11;71.68;96561.77;1683680;82;20978;-82
2022/02/11 08:16:51;;;;;;;39.88;18.48;;;;;;;6.13;70.99;96565.81;1685632;83;21029;-82
2022/02/11 08:19:19;;;;;;;27.40;14.78;;;;;;;6.15;71.18;96563.89;1678312;83;20998;-82
2022/02/11 08:21:49;;;;;;;25.92;14.90;;;;;;;6.20;71.17;96572.49;1686680;83;20960;-82
2022/02/11 08:24:15;;;;;;;21.17;12.10;;;;;;;6.24;71.17;96575.09;1679333;83;21034;-82
2022/02/11 08:26:42;;;;;;;51.40;24.07;;;;;;;6.26;70.76;96576.56;1682621;83;21373;-82
2022/02/11 08:29:13;;;;;;;28.10;17.02;;;;;;;6.28;70.84;96573.34;1688283;83;21015;-82
2022/02/11 08:31:39;;;;;;;24.05;13.48;;;;;;;6.27;70.94;96576.89;1679826;83;21042;-83
2022/02/11 08:34:05;;;;;;;17.85;12.07;;;;;;;6.31;71.03;96576.10;1681579;83;21444;-82
2022/02/11 08:36:31;;;;;;;29.95;16.35;;;;;;;6.35;70.57;96566.31;1682318;83;20977;-83
2022/02/11 08:38:57;;;;;;;47.70;22.37;;;;;;;6.39;70.44;96570.20;1696650;83;21106;-82
2022/02/11 08:41:23;;;;;;;29.55;14.78;;;;;;;6.42;69.91;96561.67;1688564;82;21477;-81
2022/02/11 08:43:49;;;;;;;22.85;11.20;;;;;;;6.45;69.49;96557.97;1687963;83;21483;-82
2022/02/11 08:46:14;;;;;;;22.37;11.22;;;;;;;6.49;69.25;96559.28;1683415;83;20980;-82
2022/02/11 08:48:40;;;;;;;41.15;19.57;;;;;;;6.51;68.85;96566.42;1658295;83;20981;-83
2022/02/11 08:51:06;;;;;;;56.15;25.77;;;;;;;6.51;68.86;96565.94;1691554;83;21375;-83
2022/02/11 08:53:34;;;;;;;32.60;15.85;;;;;;;6.53;69.20;96571.76;1696482;83;21406;-83
2022/02/11 08:55:59;;;;;;;22.55;11.25;;;;;;;6.54;68.68;96569.50;1682005;83;21071;-82
2022/02/11 08:58:25;;;;;;;77.40;29.98;;;;;;;6.51;67.79;96574.98;1678616;83;21071;-81
2022/02/11 09:00:51;;;;;;;23.05;12.33;;;;;;;6.48;68.23;96578.31;1680573;83;21779;-83
2022/02/11 09:03:16;;;;;;;25.77;13.50;;;;;;;6.48;68.56;96579.61;1671187;83;20972;-83
2022/02/11 09:05:42;;;;;;;27.13;12.80;;;;;;;6.49;69.08;96578.64;1682392;83;21060;-83
2022/02/11 09:08:09;;;;;;;34.73;16.02;;;;;;;6.50;68.68;96588.00;1691974;83;21005;-82
2022/02/11 09:10:35;;;;;;;17.17;11.08;;;;;;;6.48;68.53;96580.42;1604629;86;21038;-82
2022/02/11 09:13:01;;;;;;;14.85;10.20;;;;;;;6.43;68.69;96575.39;1684738;83;20987;-82
2022/02/11 09:15:27;;;;;;;25.37;14.63;;;;;;;6.39;68.39;96575.37;1677830;83;21414;-82
2022/02/11 09:17:54;;;;;;;28.07;15.32;;;;;;;6.36;68.89;96575.67;1681232;83;21060;-82
2022/02/11 09:20:20;;;;;;;12.95;7.90;;;;;;;6.32;69.15;96572.08;1679789;83;21063;-82
2022/02/11 09:22:46;;;;;;;13.93;7.92;;;;;;;6.29;68.63;96571.09;1686061;82;21056;-82
2022/02/11 09:25:12;;;;;;;22.32;14.20;;;;;;;6.27;68.27;96574.79;1687601;82;21323;-83
2022/02/11 09:27:43;;;;;;;34.20;19.55;;;;;;;6.26;68.35;96589.47;1688074;83;20924;-82
2022/02/11 09:30:07;;;;;;;20.40;11.70;;;;;;;6.26;68.26;96589.47;1689010;83;21088;-83
2022/02/11 09:32:34;;;;;;;14.00;8.80;;;;;;;6.24;68.22;96582.36;1679639;83;21368;-82
2022/02/11 09:35:00;;;;;;;18.48;10.05;;;;;;;6.24;68.30;96584.94;1691444;83;21101;-83
2022/02/11 09:37:27;;;;;;;21.97;15.08;;;;;;;6.22;67.91;96586.86;1686566;84;21056;-82
2022/02/11 09:39:53;;;;;;;23.90;15.28;;;;;;;6.19;68.26;96594.09;1688619;82;21024;-82
2022/02/11 09:42:20;;;;;;;18.98;11.48;;;;;;;6.17;68.47;96593.41;1685796;84;21470;-82
2022/02/11 09:44:46;;;;;;;19.05;11.18;;;;;;;6.12;68.45;96599.02;1680730;83;20997;-83
2022/02/11 09:47:12;;;;;;;24.63;13.20;;;;;;;6.11;68.17;96588.85;1697842;83;21368;-83
2022/02/11 09:49:38;;;;;;;13.45;9.45;;;;;;;6.09;68.21;96589.48;1689867;83;20953;-83
2022/02/11 09:52:05;;;;;;;14.80;10.70;;;;;;;6.09;68.41;96602.38;1687761;83;21033;-82
2022/02/11 09:54:32;;;;;;;14.35;7.62;;;;;;;6.12;68.18;96605.95;1681102;83;21068;-84
2022/02/11 09:56:58;;;;;;;18.95;9.85;;;;;;;6.12;68.39;96602.08;1683074;83;21061;-82
2022/02/11 09:59:24;;;;;;;20.27;14.58;;;;;;;6.14;68.51;96602.73;1689714;83;21140;-82
2022/02/11 10:01:50;;;;;;;15.53;10.45;;;;;;;6.16;68.74;96603.40;1685376;83;21048;-82
2022/02/11 10:04:21;;;;;;;9.85;7.67;;;;;;;6.18;68.85;96589.86;1683492;84;20992;-83
2022/02/11 10:06:50;;;;;;;14.17;9.83;;;;;;;6.18;68.54;96595.86;1686957;83;20994;-82
2022/02/11 10:09:16;;;;;;;12.60;8.93;;;;;;;6.14;68.75;96586.78;1688491;84;21001;-82
2022/02/11 10:11:44;;;;;;;16.10;8.33;;;;;;;6.14;68.77;96593.23;1692053;82;21467;-82
2022/02/11 10:14:26;;;;;;;13.32;9.00;;;;;;;6.13;68.63;96601.93;1685657;83;21028;-82
2022/02/11 10:17:09;;;;;;;13.35;8.70;;;;;;;6.12;68.67;96600.79;1683344;83;21029;-82
2022/02/11 10:19:44;;;;;;;11.95;6.83;;;;;;;6.14;68.72;96598.87;1679351;83;20989;-83
2022/02/11 10:22:22;;;;;;;6.40;5.55;;;;;;;6.15;67.30;96582.42;1682011;84;20990;-82
2022/02/11 10:25:26;;;;;;;15.85;8.78;;;;;;;6.16;67.88;96591.78;1672027;84;21035;-83
2022/02/11 10:27:52;;;;;;;22.25;12.35;;;;;;;6.20;67.09;96590.55;1684002;84;21000;-82
2022/02/11 10:30:22;;;;;;;12.90;7.28;;;;;;;6.24;66.99;96584.94;1696466;83;21000;-82
2022/02/11 10:32:49;;;;;;;12.20;7.58;;;;;;;6.31;67.19;96579.49;1708301;83;21397;-82
2022/02/11 10:35:17;;;;;;;9.40;5.78;;;;;;;6.43;67.17;96571.52;1714438;83;22247;-83
2022/02/11 10:38:08;;;;;;;13.08;7.75;;;;;;;6.54;66.90;96569.50;1711847;82;21019;-82
2022/02/11 10:40:36;;;;;;;10.38;6.03;;;;;;;6.65;66.29;96561.97;1696893;83;21046;-82
2022/02/11 10:43:02;;;;;;;15.05;9.13;;;;;;;6.77;66.30;96562.52;1702331;83;21018;-82
2022/02/11 10:45:31;;;;;;;9.18;6.20;;;;;;;6.87;65.99;96548.55;1694648;83;20983;-82
2022/02/11 10:48:14;;;;;;;8.55;4.78;;;;;;;6.76;66.08;96516.52;1693605;83;21028;-82
2022/02/11 10:50:40;;;;;;;16.48;10.78;;;;;;;7.14;65.86;96551.87;1694725;83;21024;-82
2022/02/11 10:53:07;;;;;;;8.03;5.00;;;;;;;7.27;64.69;96542.39;1672392;82;21141;-82
2022/02/11 10:55:33;;;;;;;7.85;4.92;;;;;;;7.33;64.13;96556.80;1692587;82;21439;-82
2022/02/11 10:58:00;;;;;;;4.85;3.67;;;;;;;7.41;64.30;96561.17;1670982;82;20955;-82
2022/02/11 11:00:27;;;;;;;8.08;5.15;;;;;;;7.47;63.99;96558.75;1649587;85;21590;-83
2022/02/11 11:02:53;;;;;;;12.50;7.25;;;;;;;7.52;63.51;96568.16;1698297;82;21097;-82
2022/02/11 11:05:19;;;;;;;22.82;12.10;;;;;;;7.51;62.12;96557.98;1692491;83;21070;-82
2022/02/11 11:07:44;;;;;;;14.87;9.03;;;;;;;7.50;62.85;96549.90;1690654;83;21553;-82
2022/02/11 11:10:11;;;;;;;7.45;4.15;;;;;;;7.56;62.38;96545.86;1692612;83;20994;-82
2022/02/11 11:12:39;;;;;;;9.85;5.28;;;;;;;7.58;62.15;96550.39;1697522;83;21024;-82
2022/02/11 11:15:06;;;;;;;7.28;4.95;;;;;;;7.57;61.29;96539.72;1694193;82;21571;-82
2022/02/11 11:17:32;;;;;;;11.45;7.40;;;;;;;7.55;61.82;96545.05;1697328;83;21012;-82
2022/02/11 11:19:57;;;;;;;13.28;8.15;;;;;;;7.55;62.30;96546.34;1696869;83;21034;-82
2022/02/11 11:22:26;;;;;;;12.75;7.62;;;;;;;7.57;62.09;96548.28;1640157;86;20998;-82
2022/02/11 11:25:05;;;;;;;12.58;7.53;;;;;;;7.60;61.92;96557.02;1690781;83;20994;-82
2022/02/11 11:27:43;;;;;;;6.97;4.90;;;;;;;7.61;61.27;96555.23;1696718;83;21425;-82
2022/02/11 11:30:26;;;;;;;12.25;6.87;;;;;;;7.59;62.01;96552.81;1691676;82;21113;-82
2022/02/11 11:33:10;;;;;;;12.30;6.17;;;;;;;7.53;61.59;96541.82;1695069;83;21012;-82
2022/02/11 11:35:44;;;;;;;8.65;5.75;;;;;;;7.43;61.04;96551.48;1697551;83;21040;-82
2022/02/11 11:38:19;;;;;;;16.97;11.88;;;;;;;7.34;62.28;96544.20;1684363;84;21017;-82
2022/02/11 11:41:08;;;;;;;8.25;6.58;;;;;;;7.28;62.32;96562.09;1686494;83;21009;-83
2022/02/11 11:43:43;;;;;;;6.25;5.22;;;;;;;7.23;61.94;96552.23;1687169;83;21321;-83
2022/02/11 11:46:22;;;;;;;5.62;4.45;;;;;;;7.18;61.62;96528.64;1691852;83;20961;-82
2022/02/11 11:48:59;;;;;;;6.40;4.33;;;;;;;7.23;61.89;96521.22;1685665;83;21004;-82
2022/02/11 11:51:29;;;;;;;4.85;3.83;;;;;;;7.29;62.51;96530.11;1689545;83;21021;-82
2022/02/11 11:54:21;;;;;;;7.08;4.60;;;;;;;7.33;62.42;96537.90;1636941;86;21064;-83
2022/02/11 11:57:00;;;;;;;8.67;5.40;;;;;;;7.36;62.61;96531.92;1689827;83;20971;-83
2022/02/11 11:59:56;;;;;;;4.90;3.42;;;;;;;7.40;62.99;96553.91;1673464;84;21140;-83
2022/02/11 12:02:27;;;;;;;6.08;4.25;;;;;;;7.38;62.23;96553.73;1685201;83;21250;-83
2022/02/11 12:04:55;;;;;;;7.45;4.50;;;;;;;7.32;62.50;96556.48;1690925;83;20985;-83
2022/02/11 12:07:29;;;;;;;8.35;5.60;;;;;;;7.28;62.05;96559.51;1686806;83;21040;-83
2022/02/11 12:09:58;;;;;;;6.35;4.28;;;;;;;7.22;62.63;96561.77;1666638;84;21435;-83
2022/02/11 12:12:32;;;;;;;6.87;4.15;;;;;;;7.13;62.68;96562.69;1681537;83;21084;-83
2022/02/11 12:15:04;;;;;;;6.10;4.20;;;;;;;7.06;62.92;96561.70;1688267;84;21024;-82
2022/02/11 12:17:31;;;;;;;7.55;5.30;;;;;;;7.01;63.41;96561.36;1687471;84;21099;-83
2022/02/11 12:19:56;;;;;;;8.05;5.37;;;;;;;6.96;63.46;96567.45;1690221;83;21027;-81
2022/02/11 12:22:30;;;;;;;5.35;4.50;;;;;;;6.91;63.69;96569.22;1690063;83;21005;-82
2022/02/11 12:27:45;;;;;;;8.28;5.80;;;;;;;6.80;64.70;96574.64;1686717;83;21116;-82
2022/02/11 12:30:16;;;;;;;8.78;6.60;;;;;;;6.75;65.14;96579.95;1690159;83;21056;-82
2022/02/11 12:32:46;;;;;;;9.03;5.87;;;;;;;6.68;65.86;96577.66;1672475;84;21443;-82
2022/02/11 12:35:23;;;;;;;8.58;5.65;;;;;;;6.64;66.70;96581.00;1688721;83;20992;-82
2022/02/11 12:37:52;;;;;;;7.45;5.12;;;;;;;6.62;66.98;96585.52;1682369;84;21001;-82
2022/02/11 12:40:27;;;;;;;7.75;5.15;;;;;;;6.57;68.76;96570.97;1687386;83;20946;-81
2022/02/11 12:42:59;;;;;;;6.72;5.33;;;;;;;6.50;68.19;96586.72;1687973;83;21403;-82
2022/02/11 12:45:34;;;;;;;6.33;5.08;;;;;;;6.42;69.01;96584.09;1686440;83;20999;-82
2022/02/11 12:48:00;;;;;;;8.50;5.70;;;;;;;6.34;69.58;96591.28;1699067;83;21037;-82
2022/02/11 12:50:33;;;;;;;13.18;8.93;;;;;;;6.24;70.27;96599.13;1690456;83;21427;-82
2022/02/11 12:53:02;;;;;;;17.27;10.75;;;;;;;6.16;71.29;96599.53;1683175;83;21046;-82
2022/02/11 12:55:30;;;;;;;14.50;9.78;;;;;;;6.06;72.08;96611.71;1687677;82;21065;-82
2022/02/11 12:57:58;;;;;;;14.80;10.35;;;;;;;5.97;72.95;96620.65;1687876;83;21031;-82
2022/02/11 13:00:30;;;;;;;12.28;7.62;;;;;;;5.90;73.01;96636.39;1689918;83;21096;-82
2022/02/11 13:02:58;;;;;;;9.98;7.28;;;;;;;5.75;74.23;96630.56;1686505;83;21085;-81
2022/02/11 13:05:26;;;;;;;12.18;8.20;;;;;;;5.72;75.39;96636.83;1681610;83;21000;-82
2022/02/11 13:07:58;;;;;;;11.85;8.58;;;;;;;5.61;74.67;96640.88;1681806;83;20996;-82
2022/02/11 13:10:30;;;;;;;14.70;8.73;;;;;;;5.51;75.70;96636.25;1686537;83;21328;-82
2022/02/11 13:13:02;;;;;;;11.30;9.45;;;;;;;5.43;77.29;96641.66;1691892;83;21046;-82
2022/02/11 13:15:33;;;;;;;11.95;8.38;;;;;;;5.37;76.54;96643.52;1684409;83;20973;-82
2022/02/11 13:18:09;;;;;;;12.23;9.30;;;;;;;5.33;77.66;96652.47;1689584;82;21111;-81
2022/02/11 13:20:37;;;;;;;12.03;9.00;;;;;;;5.31;77.50;96669.03;1684934;83;21080;-82
2022/02/11 13:23:03;;;;;;;11.95;7.60;;;;;;;5.26;78.77;96692.66;1688509;83;21024;-81
2022/02/11 13:25:32;;;;;;;9.43;6.90;;;;;;;5.13;78.17;96681.37;1690661;83;21044;-82
2022/02/11 13:28:11;;;;;;;14.90;9.20;;;;;;;4.93;77.28;96697.02;1686903;83;21148;-82
2022/02/11 13:30:43;;;;;;;10.00;8.98;;;;;;;4.76;77.41;96684.38;1683851;83;21072;-82
2022/02/11 13:33:34;;;;;;;12.80;9.95;;;;;;;4.65;78.13;96696.10;1705645;83;21067;-82
2022/02/11 13:36:10;;;;;;;10.93;6.95;;;;;;;4.62;78.55;96701.53;1695796;83;21423;-82
2022/02/11 13:38:39;;;;;;;10.50;8.50;;;;;;;4.58;79.17;96719.02;1697023;83;21048;-82
2022/02/11 13:41:11;;;;;;;10.90;8.53;;;;;;;4.57;81.47;96739.73;1694171;83;21056;-82
2022/02/11 13:43:55;;;;;;;7.55;6.47;;;;;;;4.48;79.66;96774.33;1697035;83;21039;-82
2022/02/11 13:46:37;;;;;;;7.47;6.33;;;;;;;4.32;79.50;96791.23;1704742;83;21355;-82
2022/02/11 13:49:07;;;;;;;13.10;8.98;;;;;;;4.07;79.95;96788.21;1704466;83;20981;-82
2022/02/11 13:51:33;;;;;;;7.37;4.70;;;;;;;3.89;80.18;96800.84;1702211;83;21344;-82
2022/02/11 13:54:12;;;;;;;6.95;5.85;;;;;;;3.73;79.89;96812.55;1698474;83;21032;-82
2022/02/11 13:56:46;;;;;;;7.53;5.80;;;;;;;3.61;79.75;96824.69;1697447;83;21447;-82
2022/02/11 13:59:15;;;;;;;7.50;5.25;;;;;;;3.45;79.95;96841.03;1700681;83;21425;-82
2022/02/11 14:01:46;;;;;;;5.80;4.62;;;;;;;3.30;80.17;96841.34;1703040;83;21030;-82
2022/02/11 14:04:17;;;;;;;9.65;8.25;;;;;;;3.24;80.42;96859.80;1701247;83;21053;-82
2022/02/11 14:06:56;;;;;;;8.98;8.08;;;;;;;3.18;80.45;96858.21;1695776;83;21104;-82
2022/02/11 14:09:40;;;;;;;11.33;9.95;;;;;;;3.15;81.16;96873.41;1695427;83;21076;-82
2022/02/11 14:12:23;;;;;;;10.60;8.55;;;;;;;3.13;81.06;96893.73;1698879;83;21025;-81
2022/02/11 14:14:57;;;;;;;11.33;10.18;;;;;;;3.14;81.36;96906.91;1702114;83;21039;-82
2022/02/11 14:17:26;;;;;;;12.13;10.23;;;;;;;3.03;80.85;96906.94;1700675;82;21391;-81
2022/02/11 14:19:51;;;;;;;11.73;9.93;;;;;;;2.99;81.12;96914.08;1680814;83;21003;-81
2022/02/11 14:22:17;;;;;;;13.22;11.73;;;;;;;2.92;81.11;96920.61;1681434;83;21020;-82
2022/02/11 14:24:43;;;;;;;14.10;11.20;;;;;;;2.88;81.64;96938.48;1638453;86;20958;-81
2022/02/11 14:27:10;;;;;;;10.23;8.55;;;;;;;2.80;81.30;96942.95;1682493;83;21343;-81
2022/02/11 14:29:38;;;;;;;13.70;11.30;;;;;;;2.71;81.66;96953.45;1701408;83;21573;-81
2022/02/11 14:32:05;;;;;;;12.75;9.83;;;;;;;2.63;81.39;96955.80;1680429;83;20964;-81
2022/02/11 14:34:31;;;;;;;13.60;11.88;;;;;;;2.51;82.23;96962.34;1672160;83;21056;-81
2022/02/11 14:36:57;;;;;;;15.10;11.95;;;;;;;2.46;81.42;96982.41;1672338;84;21048;-81
2022/02/11 14:39:25;;;;;;;13.95;11.00;;;;;;;2.38;82.35;96997.08;1677550;83;21024;-82
2022/02/11 14:41:54;;;;;;;14.45;11.63;;;;;;;2.28;82.65;97007.70;1676892;84;21120;-82
2022/02/11 14:44:26;;;;;;;13.00;11.05;;;;;;;2.21;83.04;97014.20;1669061;84;21065;-82
2022/02/11 14:47:00;;;;;;;13.62;11.68;;;;;;;2.19;83.14;97018.16;1667966;83;21057;-82
2022/02/11 14:49:26;;;;;;;12.23;10.10;;;;;;;2.18;82.59;97011.40;1674969;83;20981;-81
2022/02/11 14:51:56;;;;;;;12.30;10.23;;;;;;;2.21;82.37;97015.02;1675450;83;20948;-82
2022/02/11 14:54:22;;;;;;;12.95;11.55;;;;;;;2.19;82.10;97024.57;1618179;86;21063;-82
2022/02/11 14:56:50;;;;;;;20.30;16.77;;;;;;;2.26;82.33;97027.02;1672333;83;21424;-83
2022/02/11 14:59:16;;;;;;;20.30;15.18;;;;;;;2.31;82.48;97026.23;1678937;83;20992;-82
2022/02/11 15:01:42;;;;;;;16.87;14.10;;;;;;;2.33;82.42;97027.39;1653037;83;21370;-82
2022/02/11 15:04:08;;;;;;;18.05;15.48;;;;;;;2.29;82.57;97037.06;1673795;83;21012;-82
2022/02/11 15:06:34;;;;;;;17.90;12.25;;;;;;;2.26;82.44;97048.81;1672870;84;21004;-82
2022/02/11 15:09:01;;;;;;;13.53;9.70;;;;;;;2.24;82.28;97046.02;1672701;83;20969;-82
2022/02/11 15:11:29;;;;;;;14.83;11.00;;;;;;;2.19;81.70;97056.62;1669992;83;21418;-83
2022/02/11 15:13:55;;;;;;;12.50;9.63;;;;;;;2.17;81.88;97061.05;1669888;83;21055;-82
2022/02/11 15:16:20;;;;;;;14.50;12.00;;;;;;;2.15;81.89;97075.73;1682790;83;20966;-82
2022/02/11 15:18:46;;;;;;;28.10;14.85;;;;;;;2.09;81.88;97083.38;1674926;83;21054;-82
2022/02/11 15:21:14;;;;;;;13.32;11.38;;;;;;;2.05;82.69;97081.16;1672368;83;21092;-82
2022/02/11 15:23:40;;;;;;;15.23;12.13;;;;;;;1.99;82.12;97091.88;1676810;83;21064;-81
2022/02/11 15:26:08;;;;;;;17.52;14.43;;;;;;;1.95;82.25;97094.28;1675332;83;21082;-82
2022/02/11 15:28:37;;;;;;;22.60;16.87;;;;;;;1.94;82.29;97099.05;1670958;83;21120;-82
2022/02/11 15:31:03;;;;;;;18.87;13.88;;;;;;;1.97;82.47;97102.23;1676143;83;21123;-82
2022/02/11 15:33:30;;;;;;;15.65;10.93;;;;;;;1.99;82.61;97103.41;1689784;83;21050;-82